createdAt,value
2019-04-25T00:01:38.287Z,64.70
2019-04-25T00:04:08.922Z,64.80
2019-04-25T00:06:40.743Z,64.90
2019-04-25T00:09:13.647Z,65.40
2019-04-25T00:11:46.544Z,65.20
2019-04-25T00:14:16.260Z,64.10
2019-04-25T00:16:47.211Z,64.20
2019-04-25T00:19:19.669Z,64.80
2019-04-25T00:22:07.376Z,65.10
2019-04-25T00:25:15.945Z,65.70
2019-04-25T00:27:41.489Z,65.70
2019-04-25T00:30:11.410Z,65.30
2019-04-25T00:32:42.166Z,64.40
2019-04-25T00:35:11.786Z,64.50
2019-04-25T00:37:43.308Z,64.50
2019-04-25T00:40:13.495Z,63.70
2019-04-25T00:42:44.695Z,63.40
2019-04-25T00:45:14.824Z,63.10
2019-04-25T00:47:44.682Z,63.00
2019-04-25T00:50:16.356Z,63.60
2019-04-25T00:52:45.152Z,64.10
2019-04-25T00:55:25.815Z,64.20
2019-04-25T00:57:46.951Z,64.70
2019-04-25T01:00:34.334Z,64.70
2019-04-25T01:03:05.382Z,65.10
2019-04-25T01:05:34.818Z,65.60
2019-04-25T01:08:03.090Z,65.90
2019-04-25T01:10:31.637Z,66.00
2019-04-25T01:13:01.365Z,66.40
2019-04-25T01:15:31.425Z,66.80
2019-04-25T01:18:01.188Z,67.80
2019-04-25T01:20:29.546Z,67.40
2019-04-25T01:22:57.834Z,67.00
2019-04-25T01:25:38.578Z,67.20
2019-04-25T01:27:58.883Z,67.30
2019-04-25T01:30:28.570Z,67.50
2019-04-25T01:32:57.971Z,67.50
2019-04-25T01:35:54.288Z,67.50
2019-04-25T01:38:28.706Z,67.90
2019-04-25T01:41:29.202Z,67.90
2019-04-25T01:44:09.700Z,67.70
2019-04-25T01:46:40.937Z,67.60
2019-04-25T01:49:10.092Z,67.80
2019-04-25T01:51:39.169Z,68.20
2019-04-25T01:54:08.927Z,68.70
2019-04-25T01:56:38.432Z,68.70
2019-04-25T01:59:07.844Z,68.80
2019-04-25T02:01:38.942Z,68.70
2019-04-25T02:04:08.380Z,68.90
2019-04-25T02:06:37.625Z,69.80
2019-04-25T02:09:10.387Z,69.80
2019-04-25T02:11:46.113Z,69.70
2019-04-25T02:14:15.795Z,69.60
2019-04-25T02:16:45.221Z,70.10
2019-04-25T02:19:14.649Z,70.40
2019-04-25T02:21:44.542Z,70.30
2019-04-25T02:24:14.307Z,70.70
2019-04-25T02:26:44.252Z,70.70
2019-04-25T02:29:14.213Z,70.60
2019-04-25T02:31:46.124Z,70.90
2019-04-25T02:34:18.058Z,71.10
2019-04-25T02:36:46.923Z,70.90
2019-04-25T02:39:18.669Z,70.70
2019-04-25T02:41:48.701Z,70.70
2019-04-25T02:44:17.763Z,70.70
2019-04-25T02:47:17.286Z,70.70
2019-04-25T02:50:05.468Z,70.30
2019-04-25T02:52:38.464Z,70.60
2019-04-25T02:55:10.709Z,70.50
2019-04-25T02:57:38.707Z,70.70
2019-04-25T03:00:10.018Z,70.80
2019-04-25T03:02:39.786Z,70.90
2019-04-25T03:05:09.901Z,71.50
2019-04-25T03:07:39.896Z,71.80
2019-04-25T03:10:11.364Z,72.20
2019-04-25T03:12:41.593Z,72.30
2019-04-25T03:15:15.029Z,72.20
2019-04-25T03:17:44.624Z,72.30
2019-04-25T03:20:35.301Z,72.00
2019-04-25T03:23:14.658Z,72.20
2019-04-25T03:25:43.850Z,71.90
2019-04-25T03:28:15.517Z,71.70
2019-04-25T03:30:45.288Z,71.40
2019-04-25T03:33:19.628Z,71.30
2019-04-25T03:35:45.225Z,71.10
2019-04-25T03:38:14.524Z,71.30
2019-04-25T03:40:44.019Z,70.70
2019-04-25T03:43:14.918Z,70.30
2019-04-25T03:45:45.284Z,70.10
2019-04-25T03:48:14.944Z,70.30
2019-04-25T03:50:44.221Z,70.90
2019-04-25T03:53:13.990Z,71.10
2019-04-25T03:55:44.363Z,70.80
2019-04-25T03:58:14.659Z,70.80
2019-04-25T04:00:44.718Z,71.00
2019-04-25T04:03:15.106Z,70.80
2019-04-25T04:05:44.801Z,70.70
2019-04-25T04:08:15.708Z,70.40
2019-04-25T04:10:45.555Z,70.40
2019-04-25T04:13:14.597Z,70.20
2019-04-25T04:15:45.529Z,70.10
2019-04-25T04:18:26.552Z,69.90
2019-04-25T04:21:03.176Z,70.00
2019-04-25T04:23:44.210Z,70.30
2019-04-25T04:26:16.307Z,70.40
2019-04-25T04:28:46.675Z,70.60
2019-04-25T04:31:16.650Z,70.80
2019-04-25T04:33:46.141Z,71.20
2019-04-25T04:36:19.001Z,71.40
2019-04-25T04:38:49.427Z,71.60
2019-04-25T04:41:21.506Z,71.90
2019-04-25T04:43:50.860Z,71.90
2019-04-25T04:46:20.586Z,72.00
2019-04-25T04:48:50.655Z,72.50
2019-04-25T04:51:20.489Z,72.30
2019-04-25T04:53:50.135Z,72.00
2019-04-25T04:56:19.849Z,71.50
2019-04-25T04:58:49.290Z,71.00
2019-04-25T05:01:24.992Z,70.40
2019-04-25T05:04:10.699Z,70.10
2019-04-25T05:06:47.033Z,69.30
2019-04-25T05:09:19.827Z,68.50
2019-04-25T05:11:49.584Z,68.50
2019-04-25T05:14:19.572Z,68.60
2019-04-25T05:16:49.597Z,68.00
2019-04-25T05:19:19.957Z,67.40
2019-04-25T05:21:49.934Z,66.50
2019-04-25T05:24:19.749Z,66.80
2019-04-25T05:26:49.293Z,65.40
2019-04-25T05:29:21.273Z,64.10
2019-04-25T05:31:54.128Z,62.40
2019-04-25T05:34:25.824Z,62.40
2019-04-25T05:36:55.552Z,61.70
2019-04-25T05:39:25.125Z,61.40
2019-04-25T05:42:04.284Z,61.30
2019-04-25T05:44:34.370Z,60.70
2019-04-25T05:47:04.227Z,60.50
2019-04-25T05:49:34.264Z,60.40
2019-04-25T05:52:04.381Z,60.60
2019-04-25T05:54:34.498Z,60.80
2019-04-25T05:57:04.313Z,59.90
2019-04-25T05:59:34.055Z,59.20
2019-04-25T06:02:03.966Z,58.50
2019-04-25T06:04:33.530Z,57.70
2019-04-25T06:07:02.993Z,56.40
2019-04-25T06:09:54.990Z,56.30
2019-04-25T06:12:53.604Z,56.40
2019-04-25T06:15:26.235Z,55.50
2019-04-25T06:18:21.190Z,54.80
2019-04-25T06:20:50.781Z,54.40
2019-04-25T06:23:39.100Z,53.90
2019-04-25T06:26:19.876Z,53.70
2019-04-25T06:28:52.061Z,52.90
2019-04-25T06:31:11.586Z,52.30
2019-04-25T06:33:41.052Z,51.90
2019-04-25T06:36:13.876Z,51.30
2019-04-25T06:38:44.351Z,49.30
2019-04-25T06:41:13.790Z,49.30
2019-04-25T06:43:44.857Z,49.10
2019-04-25T06:46:33.859Z,48.20
2019-04-25T06:49:27.768Z,47.80
2019-04-25T06:51:57.979Z,47.70
2019-04-25T06:54:28.086Z,47.90
2019-04-25T06:56:57.380Z,46.30
2019-04-25T06:59:27.549Z,45.30
2019-04-25T07:01:57.569Z,44.70
2019-04-25T07:04:27.940Z,44.40
2019-04-25T07:07:09.352Z,43.60
2019-04-25T07:09:30.020Z,43.30
2019-04-25T07:12:00.398Z,43.30
2019-04-25T07:14:31.825Z,42.90
2019-04-25T07:19:54.135Z,41.80
2019-04-25T07:23:34.486Z,40.60
2019-04-25T07:26:20.516Z,39.80
2019-04-25T07:29:05.359Z,38.60
2019-04-25T07:31:48.814Z,39.00
2019-04-25T07:34:20.468Z,39.00
2019-04-25T07:36:51.160Z,37.70
2019-04-25T07:39:21.006Z,37.70
2019-04-25T07:41:54.090Z,38.70
2019-04-25T07:44:35.311Z,38.50
2019-04-25T07:46:55.945Z,37.40
2019-04-25T07:49:26.842Z,37.70
2019-04-25T07:51:57.809Z,36.80
2019-04-25T07:54:28.818Z,36.50
2019-04-25T07:57:08.387Z,36.30
2019-04-25T07:59:37.499Z,35.90
2019-04-25T08:02:06.719Z,34.80
2019-04-25T08:04:37.048Z,34.70
2019-04-25T08:07:06.307Z,33.50
2019-04-25T08:09:37.070Z,33.10
2019-04-25T08:12:07.190Z,31.90
2019-04-25T08:14:50.752Z,31.60
2019-04-25T08:17:39.907Z,30.80
2019-04-25T08:20:10.093Z,29.40
2019-04-25T08:22:51.955Z,29.40
2019-04-25T08:25:13.751Z,28.70
2019-04-25T08:27:44.967Z,27.30
2019-04-25T08:30:15.442Z,26.60
2019-04-25T08:32:44.898Z,26.80
2019-04-25T08:35:16.071Z,26.90
2019-04-25T08:37:44.855Z,26.90
2019-04-25T08:40:14.800Z,27.10
2019-04-25T08:42:44.963Z,26.80
2019-04-25T08:45:18.159Z,25.80
2019-04-25T08:47:47.318Z,25.10
2019-04-25T08:50:31.384Z,23.50
2019-04-25T08:52:58.935Z,23.10
2019-04-25T08:55:45.974Z,21.90
2019-04-25T08:58:35.403Z,21.60
2019-04-25T09:01:16.071Z,21.50
2019-04-25T09:03:53.882Z,20.60
2019-04-25T09:06:24.401Z,20.60
2019-04-25T09:08:54.081Z,20.70
2019-04-25T09:11:24.488Z,20.10
2019-04-25T09:13:53.961Z,18.90
2019-04-25T09:16:23.940Z,19.10
2019-04-25T09:18:53.960Z,18.30
2019-04-25T09:21:23.867Z,17.90
2019-04-25T09:23:53.617Z,18.20
2019-04-25T09:26:24.136Z,18.20
2019-04-25T09:28:53.772Z,18.30
2019-04-25T09:31:23.707Z,19.00
2019-04-25T09:33:54.952Z,18.70
2019-04-25T09:36:24.729Z,19.00
2019-04-25T09:38:56.119Z,19.50
2019-04-25T09:41:25.901Z,20.10
2019-04-25T09:43:59.583Z,20.20
2019-04-25T09:46:31.823Z,21.10
2019-04-25T09:49:10.150Z,21.00
2019-04-25T09:51:55.974Z,20.80
2019-04-25T09:54:47.269Z,21.00
2019-04-25T09:57:33.994Z,21.30
2019-04-25T10:00:03.752Z,20.60
2019-04-25T10:02:33.480Z,20.10
2019-04-25T10:05:04.249Z,18.20
2019-04-25T10:07:33.434Z,19.30
2019-04-25T10:10:03.733Z,19.10
2019-04-25T10:12:34.171Z,19.20
2019-04-25T10:15:28.819Z,19.10
2019-04-25T10:17:58.318Z,18.90
2019-04-25T10:20:27.852Z,18.70
2019-04-25T10:22:57.411Z,18.70
2019-04-25T10:25:26.508Z,18.80
2019-04-25T10:27:55.850Z,19.00
2019-04-25T10:30:26.001Z,18.70
2019-04-25T10:32:55.182Z,18.60
2019-04-25T10:35:24.470Z,18.70
2019-04-25T10:37:55.032Z,18.60
2019-04-25T10:40:25.073Z,19.70
2019-04-25T10:42:56.182Z,19.50
2019-04-25T10:45:26.508Z,20.20
2019-04-25T10:47:56.570Z,21.10
2019-04-25T10:50:25.907Z,19.90
2019-04-25T10:52:55.725Z,19.10
2019-04-25T10:55:25.184Z,19.20
2019-04-25T10:57:56.330Z,20.00
2019-04-25T11:00:36.519Z,20.10
2019-04-25T11:03:20.031Z,21.20
2019-04-25T11:05:49.848Z,21.10
2019-04-25T11:08:19.537Z,20.80
2019-04-25T11:10:50.007Z,21.00
2019-04-25T11:13:20.036Z,21.40
2019-04-25T11:15:49.786Z,21.40
2019-04-25T11:18:20.612Z,21.30
2019-04-25T11:20:53.587Z,21.70
2019-04-25T11:23:23.962Z,21.20
2019-04-25T11:25:54.257Z,21.30
2019-04-25T11:28:23.810Z,21.50
2019-04-25T11:30:54.479Z,21.50
2019-04-25T11:33:25.451Z,21.20
2019-04-25T11:35:56.261Z,21.70
2019-04-25T11:38:36.152Z,21.70
2019-04-25T11:41:13.980Z,21.50
2019-04-25T11:43:46.247Z,21.50
2019-04-25T11:46:16.611Z,21.10
2019-04-25T11:48:46.404Z,20.70
2019-04-25T11:51:20.110Z,20.60
2019-04-25T11:53:49.702Z,20.30
2019-04-25T11:56:20.342Z,20.50
2019-04-25T11:58:50.647Z,20.50
2019-04-25T12:01:24.308Z,20.20
2019-04-25T12:03:55.781Z,20.10
2019-04-25T12:06:26.704Z,19.80
2019-04-25T12:08:57.140Z,20.00
2019-04-25T12:11:28.830Z,19.70
2019-04-25T12:13:58.296Z,19.70
2019-04-25T12:16:32.473Z,19.30
2019-04-25T12:19:02.819Z,19.30
2019-04-25T12:21:34.145Z,18.70
2019-04-25T12:24:05.811Z,18.60
2019-04-25T12:26:35.994Z,18.80
2019-04-25T12:29:05.526Z,19.20
2019-04-25T12:31:35.255Z,18.10
2019-04-25T12:34:04.650Z,18.10
2019-04-25T12:36:35.567Z,18.60
2019-04-25T12:39:08.435Z,18.70
2019-04-25T12:41:38.694Z,18.40
2019-04-25T12:44:34.172Z,18.60
2019-04-25T12:47:10.129Z,18.90
2019-04-25T12:49:40.607Z,19.10
2019-04-25T12:52:10.854Z,18.70
2019-04-25T12:54:40.587Z,19.20
2019-04-25T12:57:11.698Z,19.40
2019-04-25T12:59:41.507Z,19.30
2019-04-25T13:02:11.359Z,19.50
2019-04-25T13:04:41.040Z,19.20
2019-04-25T13:07:10.907Z,19.20
2019-04-25T13:09:40.179Z,19.50
2019-04-25T13:12:10.881Z,19.70
2019-04-25T13:14:41.820Z,19.50
2019-04-25T13:17:11.407Z,19.20
2019-04-25T13:19:40.742Z,19.40
2019-04-25T13:22:11.315Z,18.90
2019-04-25T13:24:40.895Z,19.50
2019-04-25T13:27:16.585Z,19.50
2019-04-25T13:29:58.813Z,19.40
2019-04-25T13:33:04.463Z,19.80
2019-04-25T13:35:39.223Z,19.60
2019-04-25T13:38:11.117Z,19.70
2019-04-25T13:40:41.880Z,19.60
2019-04-25T13:43:11.216Z,19.80
2019-04-25T13:45:40.876Z,19.60
2019-04-25T13:48:10.248Z,19.80
2019-04-25T13:50:39.961Z,19.50
2019-04-25T13:53:09.365Z,19.50
2019-04-25T13:55:39.553Z,19.80
2019-04-25T13:58:09.190Z,19.90
2019-04-25T14:00:38.833Z,20.00
2019-04-25T14:03:08.507Z,19.80
2019-04-25T14:05:38.123Z,20.00
2019-04-25T14:08:08.105Z,19.90
2019-04-25T14:10:37.485Z,20.10
2019-04-25T14:13:07.680Z,20.10
2019-04-25T14:15:39.235Z,20.30
2019-04-25T14:18:36.481Z,20.20
2019-04-25T14:21:13.282Z,20.10
2019-04-25T14:23:44.236Z,20.60
2019-04-25T14:26:14.170Z,20.10
2019-04-25T14:28:44.272Z,20.10
2019-04-25T14:31:30.372Z,20.80
2019-04-25T14:33:47.700Z,20.40
2019-04-25T14:36:17.566Z,20.50
2019-04-25T14:38:47.845Z,20.70
2019-04-25T14:41:17.074Z,20.90
2019-04-25T14:43:46.895Z,21.00
2019-04-25T14:46:16.132Z,20.80
2019-04-25T14:48:45.834Z,20.80
2019-04-25T14:51:16.566Z,20.80
2019-04-25T14:53:46.415Z,21.40
2019-04-25T14:56:25.911Z,21.30
2019-04-25T14:58:55.642Z,21.00
2019-04-25T15:01:26.063Z,21.30
2019-04-25T15:03:55.675Z,21.40
2019-04-25T15:06:25.758Z,21.20
2019-04-25T15:08:55.766Z,21.20
2019-04-25T15:11:25.361Z,21.80
2019-04-25T15:13:54.718Z,21.90
2019-04-25T15:16:24.758Z,21.90
2019-04-25T15:18:54.495Z,21.90
2019-04-25T15:21:25.183Z,22.00
2019-04-25T15:24:00.292Z,21.70
2019-04-25T15:26:26.827Z,22.10
2019-04-25T15:28:56.622Z,22.00
2019-04-25T15:31:29.998Z,21.90
2019-04-25T15:34:02.367Z,21.90
2019-04-25T15:36:41.091Z,21.80
2019-04-25T15:39:41.318Z,21.70
2019-04-25T15:42:41.900Z,21.90
2019-04-25T15:45:31.178Z,22.30
2019-04-25T15:48:00.815Z,22.70
2019-04-25T15:50:32.210Z,22.60
2019-04-25T15:53:03.895Z,22.70
2019-04-25T15:55:33.593Z,22.50
2019-04-25T15:58:03.448Z,22.50
2019-04-25T16:00:37.044Z,22.40
2019-04-25T16:03:06.837Z,22.20
2019-04-25T16:05:38.334Z,22.50
2019-04-25T16:08:09.753Z,22.50
2019-04-25T16:10:39.088Z,22.50
2019-04-25T16:13:09.092Z,22.10
2019-04-25T16:15:41.262Z,21.80
2019-04-25T16:18:10.732Z,22.10
2019-04-25T16:20:40.276Z,22.70
2019-04-25T16:23:09.887Z,22.90
2019-04-25T16:25:39.166Z,22.50
2019-04-25T16:28:09.603Z,22.50
2019-04-25T16:30:40.816Z,22.80
2019-04-25T16:33:10.342Z,22.80
2019-04-25T16:35:40.906Z,23.10
2019-04-25T16:38:11.362Z,22.90
2019-04-25T16:40:41.484Z,23.20
2019-04-25T16:43:14.111Z,23.20
2019-04-25T16:45:45.138Z,23.60
2019-04-25T16:48:16.116Z,23.70
2019-04-25T16:50:47.922Z,23.90
2019-04-25T16:53:17.905Z,24.10
2019-04-25T16:55:47.787Z,24.10
2019-04-25T16:58:19.070Z,24.20
2019-04-25T17:01:04.885Z,24.40
2019-04-25T17:03:35.832Z,24.60
2019-04-25T17:06:06.317Z,24.60
2019-04-25T17:08:36.317Z,24.90
2019-04-25T17:11:06.629Z,24.90
2019-04-25T17:13:39.688Z,24.90
2019-04-25T17:16:27.398Z,25.30
2019-04-25T17:19:00.802Z,25.30
2019-04-25T17:21:34.766Z,25.90
2019-04-25T17:24:04.240Z,25.70
2019-04-25T17:26:34.738Z,25.70
2019-04-25T17:29:08.107Z,25.80
2019-04-25T17:32:04.730Z,26.20
2019-04-25T17:34:53.945Z,26.10
2019-04-25T17:37:46.457Z,26.50
2019-04-25T17:40:20.591Z,26.40
2019-04-25T17:42:54.138Z,26.60
2019-04-25T17:45:30.993Z,26.70
2019-04-25T17:48:00.689Z,27.00
2019-04-25T17:50:29.992Z,27.00
2019-04-25T17:52:59.793Z,27.10
2019-04-25T17:55:30.132Z,27.20
2019-04-25T17:58:00.822Z,27.40
2019-04-25T18:00:37.648Z,27.40
2019-04-25T18:03:12.429Z,27.80
2019-04-25T18:05:41.753Z,27.80
2019-04-25T18:08:11.163Z,27.90
2019-04-25T18:10:41.987Z,27.90
2019-04-25T18:13:14.012Z,27.90
2019-04-25T18:16:12.531Z,28.20
2019-04-25T18:19:05.587Z,28.40
2019-04-25T18:21:35.824Z,28.40
2019-04-25T18:24:24.308Z,28.30
2019-04-25T18:27:00.834Z,29.00
2019-04-25T18:29:30.586Z,28.60
2019-04-25T18:32:02.967Z,28.70
2019-04-25T18:34:57.798Z,28.90
2019-04-25T18:38:06.508Z,29.10
2019-04-25T18:40:59.789Z,29.20
2019-04-25T18:43:33.913Z,29.30
2019-04-25T18:46:17.412Z,29.40
2019-04-25T18:48:51.347Z,29.70
2019-04-25T18:51:22.048Z,29.70
2019-04-25T18:54:29.363Z,29.90
2019-04-25T18:57:41.602Z,29.90
2019-04-25T19:00:37.805Z,29.90
2019-04-25T19:03:38.153Z,30.10
2019-04-25T19:06:10.663Z,30.00
2019-04-25T19:08:53.201Z,30.20
2019-04-25T19:11:23.459Z,30.10
2019-04-25T19:13:56.423Z,30.20
2019-04-25T19:16:27.909Z,30.30
2019-04-25T19:18:58.411Z,30.50
2019-04-25T19:21:30.154Z,30.70
2019-04-25T19:23:59.988Z,30.70
2019-04-25T19:26:29.655Z,30.60
2019-04-25T19:29:00.071Z,30.90
2019-04-25T19:31:44.471Z,30.90
2019-04-25T19:34:14.391Z,30.80
2019-04-25T19:36:52.253Z,30.90
2019-04-25T19:39:26.196Z,31.10
2019-04-25T19:42:25.110Z,31.10
2019-04-25T19:44:55.311Z,31.10
2019-04-25T19:47:28.130Z,31.20
2019-04-25T19:51:03.587Z,31.30
2019-04-25T19:57:49.104Z,31.00
2019-04-25T20:00:36.869Z,30.80
2019-04-25T20:03:21.134Z,30.90
2019-04-25T20:06:29.640Z,31.10
2019-04-25T20:09:13.373Z,31.20
2019-04-25T20:11:47.335Z,31.10
2019-04-25T20:14:34.024Z,30.80
2019-04-25T20:17:05.034Z,30.60
2019-04-25T20:19:34.990Z,30.70
2019-04-25T20:22:06.649Z,30.80
2019-04-25T20:24:46.330Z,30.70
2019-04-25T20:27:21.187Z,30.30
2019-04-25T20:29:52.708Z,30.90
2019-04-25T20:32:25.026Z,30.90
2019-04-25T20:34:58.425Z,31.00
2019-04-25T20:37:28.338Z,31.20
2019-04-25T20:40:01.923Z,31.30
2019-04-25T20:42:35.739Z,31.20
2019-04-25T20:45:06.307Z,31.30
2019-04-25T20:47:38.929Z,31.60
2019-04-25T20:50:09.196Z,31.60
2019-04-25T20:52:40.804Z,31.60
2019-04-25T20:55:10.356Z,31.80
2019-04-25T20:57:41.837Z,31.70
2019-04-25T21:00:11.591Z,31.90
2019-04-25T21:02:42.928Z,31.80
2019-04-25T21:05:14.901Z,31.70
2019-04-25T21:07:44.862Z,31.80
2019-04-25T21:10:15.105Z,31.80
2019-04-25T21:12:44.567Z,32.20
2019-04-25T21:15:25.040Z,32.30
2019-04-25T21:18:18.609Z,32.20
2019-04-25T21:20:48.287Z,32.60
2019-04-25T21:23:17.524Z,32.70
2019-04-25T21:25:49.119Z,32.70
2019-04-25T21:28:18.814Z,32.50
2019-04-25T21:31:07.902Z,32.30
2019-04-25T21:33:38.074Z,32.10
2019-04-25T21:36:10.101Z,32.20
2019-04-25T21:38:40.992Z,32.00
2019-04-25T21:41:29.474Z,32.00
2019-04-25T21:44:03.380Z,32.70
2019-04-25T21:46:33.558Z,32.60
2019-04-25T21:49:03.536Z,32.50
2019-04-25T21:51:35.843Z,32.60
2019-04-25T21:54:05.793Z,32.50
2019-04-25T21:56:35.389Z,32.50
2019-04-25T21:59:07.754Z,32.50
2019-04-25T22:01:40.559Z,32.40
2019-04-25T22:04:10.400Z,32.20
2019-04-25T22:06:40.346Z,32.30
2019-04-25T22:09:13.621Z,32.20
2019-04-25T22:11:43.479Z,32.30
2019-04-25T22:14:13.955Z,32.20
2019-04-25T22:16:43.655Z,32.30
2019-04-25T22:19:14.510Z,32.00
2019-04-25T22:21:44.465Z,31.90
2019-04-25T22:24:14.445Z,32.00
2019-04-25T22:26:43.340Z,32.20
2019-04-25T22:29:14.291Z,32.20
2019-04-25T22:32:01.939Z,32.40
2019-04-25T22:34:52.813Z,32.70
2019-04-25T22:37:22.426Z,32.80
2019-04-25T22:39:52.093Z,33.00
2019-04-25T22:42:22.478Z,33.10
2019-04-25T22:44:54.735Z,32.90
2019-04-25T22:47:26.723Z,33.10
2019-04-25T22:49:56.278Z,33.10
2019-04-25T22:52:30.452Z,32.70
2019-04-25T22:55:02.194Z,33.00
2019-04-25T22:57:32.510Z,32.90
2019-04-25T23:00:03.235Z,33.10
2019-04-25T23:02:42.026Z,33.10
2019-04-25T23:05:36.457Z,32.90
2019-04-25T23:08:05.979Z,33.30
2019-04-25T23:10:35.394Z,33.30
2019-04-25T23:13:04.707Z,33.30
2019-04-25T23:15:34.135Z,33.30
2019-04-25T23:18:04.342Z,33.20
2019-04-25T23:20:32.665Z,33.80
2019-04-25T23:23:00.787Z,33.50
2019-04-25T23:25:37.599Z,33.00
2019-04-25T23:28:12.808Z,33.40
2019-04-25T23:31:19.194Z,33.50
2019-04-25T23:33:47.348Z,33.50
2019-04-25T23:36:16.233Z,33.90
2019-04-25T23:38:45.743Z,34.30
2019-04-25T23:41:15.726Z,34.50
2019-04-25T23:43:45.179Z,34.60
2019-04-25T23:46:14.986Z,34.60
2019-04-25T23:48:46.201Z,34.30
2019-04-25T23:51:18.091Z,34.20
2019-04-25T23:53:47.780Z,34.30
2019-04-25T23:56:17.339Z,34.00
2019-04-25T23:58:46.821Z,33.80
